Time;durP1;ratioP1;P1;durP2;ratioP2;P2;SDS_P1;SDS_P2;PMS_P1;PMS_P2;Temp;Humidity;BMP_temperature;BMP_pressure;BME280_temperature;BME280_humidity;BME280_pressure;Samples;Min_cycle;Max_cycle;Signal;HPM_P1;HPM_P2
2023/03/28 00:01:33;;;;;;;53.60;24.90;;;;;;;-1.95;76.40;96766.70;104916;1260;97091;-73
2023/03/28 00:04:02;;;;;;;40.50;22.10;;;;;;;-1.98;76.46;96766.11;104872;1267;102677;-72
2023/03/28 00:06:30;;;;;;;38.50;21.00;;;;;;;-1.97;76.62;96767.80;104889;1258;101826;-72
2023/03/28 00:08:58;;;;;;;38.80;20.70;;;;;;;-2.03;76.50;96764.60;104874;1260;100502;-73
2023/03/28 00:11:26;;;;;;;30.50;18.90;;;;;;;-2.08;76.52;96764.61;104908;1259;96624;-75
2023/03/28 00:13:59;;;;;;;28.20;17.30;;;;;;;-2.10;76.49;96765.02;105085;1268;97015;-75
2023/03/28 00:16:32;;;;;;;32.70;18.50;;;;;;;-2.17;76.44;96767.95;104985;1267;102663;-76
2023/03/28 00:19:04;;;;;;;27.00;17.70;;;;;;;-2.20;76.48;96768.71;105093;1259;101807;-75
2023/03/28 00:21:40;;;;;;;30.20;20.00;;;;;;;-2.23;76.46;96770.06;104888;1270;100473;-72
2023/03/28 00:24:12;;;;;;;32.60;21.20;;;;;;;-2.25;76.43;96771.52;104930;1259;96563;-72
2023/03/28 00:26:41;;;;;;;35.30;21.20;;;;;;;-2.31;76.37;96775.98;105053;1263;97179;-73
2023/03/28 00:29:15;;;;;;;53.50;30.10;;;;;;;-2.33;76.38;96776.55;105420;1257;102796;-72
2023/03/28 00:31:43;;;;;;;50.30;27.50;;;;;;;-2.40;76.38;96777.98;105360;1266;100378;-78
2023/03/28 00:34:11;;;;;;;36.60;22.60;;;;;;;-2.47;76.41;96775.11;105304;1266;100805;-75
2023/03/28 00:36:40;;;;;;;36.70;22.00;;;;;;;-2.54;76.42;96773.65;104943;1259;97481;-73
2023/03/28 00:39:09;;;;;;;32.20;21.70;;;;;;;-2.55;76.55;96773.90;105057;1266;97003;-73
2023/03/28 00:41:41;;;;;;;34.40;20.80;;;;;;;-2.54;76.62;96775.92;105191;1266;102675;-72
2023/03/28 00:44:45;;;;;;;29.00;19.10;;;;;;;-2.52;76.55;96773.98;105009;1256;101922;-76
2023/03/28 00:47:29;;;;;;;28.60;18.40;;;;;;;-2.53;76.44;96773.02;105262;1266;100525;-72
2023/03/28 00:50:11;;;;;;;30.80;18.30;;;;;;;-2.54;76.53;96773.48;104799;1271;96743;-72
2023/03/28 00:52:46;;;;;;;;;;;;;;;-2.55;76.49;96774.90;105001;1255;96615;-72
2023/03/28 00:55:19;;;;;;;26.90;18.00;;;;;;;-2.57;76.36;96774.54;105006;1260;102634;-78
2023/03/28 00:57:49;;;;;;;28.10;17.80;;;;;;;-2.57;76.33;96779.14;105202;1269;100471;-76
2023/03/28 01:00:19;;;;;;;27.30;17.70;;;;;;;-2.55;76.30;96785.17;104964;1257;100680;-72
2023/03/28 01:02:52;;;;;;;26.80;17.60;;;;;;;-2.57;76.23;96785.87;105045;1266;96777;-72
2023/03/28 01:05:26;;;;;;;27.90;17.50;;;;;;;-2.59;76.15;96786.45;105037;1257;96977;-72
2023/03/28 01:08:21;;;;;;;23.20;15.90;;;;;;;-2.63;76.14;96787.63;104963;1272;102742;-75
2023/03/28 01:10:50;;;;;;;27.10;15.30;;;;;;;-2.66;76.15;96786.90;104321;1275;100361;-72
2023/03/28 01:13:23;;;;;;;26.00;16.00;;;;;;;-2.66;76.21;96786.91;104589;1263;100473;-73
2023/03/28 01:15:52;;;;;;;24.60;15.30;;;;;;;-2.68;76.11;96789.77;104481;1270;96719;-72
2023/03/28 01:18:22;;;;;;;24.60;15.20;;;;;;;-2.73;75.99;96791.29;104523;1271;98411;-71
2023/03/28 01:21:06;;;;;;;25.70;15.60;;;;;;;-2.79;75.93;96788.11;104638;1273;102647;-72
2023/03/28 01:23:46;;;;;;;24.90;14.90;;;;;;;-2.86;75.77;96790.41;104673;1264;102024;-78
2023/03/28 01:26:41;;;;;;;20.80;14.20;;;;;;;-2.92;75.83;96788.87;104484;1260;99935;-73
2023/03/28 01:29:31;;;;;;;23.50;15.50;;;;;;;-2.96;75.92;96788.55;104558;1263;96647;-77
2023/03/28 01:32:11;;;;;;;22.00;14.40;;;;;;;-2.97;76.06;96790.60;104505;1273;97110;-73
2023/03/28 01:35:05;;;;;;;22.40;13.10;;;;;;;-3.04;75.90;96792.65;104486;1265;103333;-72
2023/03/28 01:38:05;;;;;;;21.40;13.50;;;;;;;-3.11;75.97;96790.27;104128;1271;102418;-73
2023/03/28 01:40:42;;;;;;;21.60;13.80;;;;;;;-3.12;75.99;96787.79;104340;1269;108931;-73
2023/03/28 01:43:16;;;;;;;19.90;12.70;;;;;;;-3.13;76.03;96782.76;104174;1264;97263;-73
2023/03/28 01:46:03;;;;;;;21.50;13.70;;;;;;;-3.13;76.08;96786.30;104182;1269;97039;-72
2023/03/28 01:48:51;;;;;;;22.70;13.70;;;;;;;-3.14;76.06;96783.86;104373;1269;102657;-76
2023/03/28 01:51:40;;;;;;;22.10;13.80;;;;;;;-3.19;76.02;96784.51;104534;1264;102016;-74
2023/03/28 01:54:29;;;;;;;21.60;13.60;;;;;;;-3.20;75.98;96787.48;104782;1263;100318;-75
2023/03/28 01:57:09;;;;;;;20.10;13.40;;;;;;;-3.25;75.89;96792.43;104666;1262;96715;-76
2023/03/28 01:59:48;;;;;;;23.10;14.40;;;;;;;-3.31;75.74;96791.98;104522;1264;97140;-73
2023/03/28 02:02:28;;;;;;;22.60;15.00;;;;;;;-3.35;75.86;96791.23;104544;1281;102624;-73
2023/03/28 02:05:03;;;;;;;21.70;15.10;;;;;;;-3.37;75.83;96788.10;104716;1264;101924;-75
2023/03/28 02:07:33;;;;;;;24.50;15.00;;;;;;;-3.40;75.83;96788.70;104820;1271;100479;-80
2023/03/28 02:10:04;;;;;;;24.80;15.50;;;;;;;-3.41;75.80;96786.92;104553;1263;97884;-74
2023/03/28 02:12:40;;;;;;;22.80;14.80;;;;;;;-3.42;75.86;96785.29;104591;1258;97354;-78
2023/03/28 02:15:13;;;;;;;25.40;15.50;;;;;;;-3.44;75.90;96788.42;104863;1264;102433;-76
2023/03/28 02:17:48;;;;;;;23.00;15.00;;;;;;;-3.47;75.69;96792.00;104702;1261;100647;-73
2023/03/28 02:20:19;;;;;;;22.00;14.20;;;;;;;-3.50;75.73;96794.92;104999;1267;100570;-73
2023/03/28 02:23:17;;;;;;;23.20;15.80;;;;;;;-3.52;75.76;96797.21;105029;1257;97484;-73
2023/03/28 02:25:45;;;;;;;25.70;14.30;;;;;;;-3.55;75.75;96798.87;105101;1254;97010;-77
2023/03/28 02:28:15;;;;;;;23.10;14.00;;;;;;;-3.57;75.75;96796.45;105109;1258;102595;-73
2023/03/28 02:30:44;;;;;;;22.10;14.00;;;;;;;-3.56;75.82;96799.40;105139;1257;101901;-73
2023/03/28 02:33:42;;;;;;;23.00;14.30;;;;;;;-3.61;75.61;96799.09;105140;1272;100345;-77
2023/03/28 02:36:17;;;;;;;23.80;14.40;;;;;;;-3.67;75.62;96799.80;104966;1270;97538;-73
2023/03/28 02:39:03;;;;;;;24.30;14.70;;;;;;;-3.70;75.62;96799.92;105293;1258;97171;-73
2023/03/28 02:41:53;;;;;;;23.90;15.40;;;;;;;-3.72;75.66;96797.30;104807;1256;197853;-73
2023/03/28 02:44:30;;;;;;;23.10;14.90;;;;;;;-3.74;75.71;96799.97;105098;1256;101976;-78
2023/03/28 02:47:22;;;;;;;22.70;15.20;;;;;;;-3.75;75.67;96806.23;105215;1267;100586;-73
2023/03/28 02:50:11;;;;;;;27.80;15.60;;;;;;;-3.77;75.67;96810.61;105068;1276;96672;-73
2023/03/28 02:53:04;;;;;;;24.90;16.40;;;;;;;-3.84;75.49;96810.33;105191;1256;96998;-73
2023/03/28 02:55:43;;;;;;;29.00;15.20;;;;;;;-3.93;75.49;96808.86;105234;1258;102671;-78
2023/03/28 02:58:23;;;;;;;33.30;18.10;;;;;;;-3.97;75.63;96799.88;104997;1257;101678;-74
2023/03/28 03:00:51;;;;;;;32.90;19.00;;;;;;;-3.96;75.76;96801.44;104963;1259;100906;-73
2023/03/28 03:03:20;;;;;;;32.00;19.70;;;;;;;-3.95;75.86;96796.95;105180;1258;96562;-73
2023/03/28 03:05:48;;;;;;;31.50;19.40;;;;;;;-3.94;75.79;96797.70;105104;1275;97070;-75
2023/03/28 03:08:17;;;;;;;30.40;17.20;;;;;;;-3.97;75.62;96802.89;105097;1258;102653;-80
2023/03/28 03:10:45;;;;;;;27.80;17.50;;;;;;;-4.01;75.46;96804.11;104660;1254;101970;-77
2023/03/28 03:13:13;;;;;;;30.20;17.30;;;;;;;-4.04;75.51;96802.96;105079;1275;100629;-78
2023/03/28 03:15:41;;;;;;;28.40;16.20;;;;;;;-4.08;75.46;96804.34;104970;1254;97899;-79
2023/03/28 03:18:09;;;;;;;27.60;16.30;;;;;;;-4.10;75.47;96808.83;105340;1267;96997;-73
2023/03/28 03:20:37;;;;;;;25.40;14.30;;;;;;;-4.12;75.40;96812.44;104927;1252;102428;-77
2023/03/28 03:23:05;;;;;;;20.70;14.10;;;;;;;-4.14;75.45;96809.69;105067;1264;101911;-74
2023/03/28 03:25:34;;;;;;;25.30;15.70;;;;;;;-4.19;75.57;96810.85;105059;1260;98989;-76
2023/03/28 03:28:03;;;;;;;27.20;15.60;;;;;;;-4.22;75.58;96807.08;105115;1267;96745;-73
2023/03/28 03:30:32;;;;;;;36.80;21.20;;;;;;;-4.24;75.63;96803.34;105291;1253;97467;-72
2023/03/28 03:33:00;;;;;;;58.90;31.60;;;;;;;-4.22;75.71;96804.41;105256;1258;102900;-73
2023/03/28 03:35:32;;;;;;;44.50;25.20;;;;;;;-4.22;75.76;96807.18;105282;1267;101825;-77
2023/03/28 03:38:00;;;;;;;45.10;27.80;;;;;;;-4.22;75.85;96806.46;104999;1259;100447;-76
2023/03/28 03:40:28;;;;;;;43.00;25.70;;;;;;;-4.21;75.97;96799.17;105260;1267;96562;-73
2023/03/28 03:42:56;;;;;;;35.90;21.50;;;;;;;-4.17;76.03;96792.67;105328;1257;97374;-73
2023/03/28 03:45:25;;;;;;;35.30;20.90;;;;;;;-4.14;76.09;96791.05;105137;1257;102685;-73
2023/03/28 03:47:53;;;;;;;35.10;21.20;;;;;;;-4.12;76.26;96788.25;105012;1252;101874;-73
2023/03/28 03:50:21;;;;;;;36.10;20.60;;;;;;;-4.07;76.30;96787.44;105005;1254;100329;-72
2023/03/28 03:52:49;;;;;;;35.10;21.30;;;;;;;-4.05;76.27;96781.40;104940;1254;96852;-73
2023/03/28 03:55:19;;;;;;;32.00;20.60;;;;;;;-4.01;76.32;96781.10;105186;1251;96978;-76
2023/03/28 03:57:47;;;;;;;31.40;20.50;;;;;;;-3.96;76.41;96780.52;105253;1251;102820;-73
2023/03/28 04:00:17;;;;;;;36.70;21.20;;;;;;;-3.91;76.36;96780.78;105246;1256;101855;-73
2023/03/28 04:02:46;;;;;;;38.40;20.60;;;;;;;-3.89;76.42;96778.29;105108;1255;100661;-73
2023/03/28 04:05:14;;;;;;;38.90;22.60;;;;;;;-3.87;76.46;96777.77;105032;1266;96705;-77
2023/03/28 04:07:42;;;;;;;39.70;23.70;;;;;;;-3.84;76.45;96778.70;105099;1258;97037;-71
2023/03/28 04:10:10;;;;;;;42.20;22.50;;;;;;;-3.81;76.51;96778.45;105075;1254;102418;-77
2023/03/28 04:12:39;;;;;;;45.90;24.50;;;;;;;-3.79;76.56;96777.71;105077;1254;102054;-75
2023/03/28 04:15:08;;;;;;;51.00;29.20;;;;;;;-3.76;76.59;96776.41;105058;1251;109263;-73
2023/03/28 04:17:36;;;;;;;51.40;28.50;;;;;;;-3.74;76.65;96777.09;105225;1256;97884;-77
2023/03/28 04:20:10;;;;;;;60.00;32.00;;;;;;;-3.74;76.68;96782.89;105117;1251;97228;-77
2023/03/28 04:22:38;;;;;;;59.50;29.50;;;;;;;-3.72;76.76;96780.37;105134;1258;102793;-73
2023/03/28 04:25:08;;;;;;;59.00;28.30;;;;;;;-3.68;76.78;96777.23;105095;1251;101828;-75
2023/03/28 04:27:36;;;;;;;62.40;30.30;;;;;;;-3.66;77.01;96774.91;105301;1258;100594;-75
2023/03/28 04:30:05;;;;;;;46.50;24.60;;;;;;;-3.61;76.95;96779.09;105210;1259;96562;-79
2023/03/28 04:32:34;;;;;;;46.10;23.90;;;;;;;-3.59;76.88;96779.37;105032;1257;98015;-74
2023/03/28 04:35:03;;;;;;;52.10;26.30;;;;;;;-3.56;76.98;96781.56;105360;1254;102886;-73
2023/03/28 04:37:31;;;;;;;54.80;27.60;;;;;;;-3.52;77.06;96780.06;105060;1257;102177;-73
2023/03/28 04:40:00;;;;;;;52.90;27.20;;;;;;;-3.51;77.12;96783.04;105069;1252;100560;-76
2023/03/28 04:42:28;;;;;;;47.60;25.30;;;;;;;-3.48;77.25;96777.87;105083;1259;97833;-73
2023/03/28 04:44:56;;;;;;;40.10;21.80;;;;;;;-3.44;77.41;96783.63;104907;1270;97081;-73
2023/03/28 04:47:24;;;;;;;44.30;23.60;;;;;;;-3.39;77.51;96787.23;105289;1257;102369;-73
2023/03/28 04:49:53;;;;;;;45.90;25.10;;;;;;;-3.35;77.57;96791.94;105042;1253;100315;-73
2023/03/28 04:52:21;;;;;;;41.20;23.20;;;;;;;-3.31;77.62;96789.27;105182;1267;98866;-73
2023/03/28 04:54:50;;;;;;;43.30;26.30;;;;;;;-3.26;77.72;96790.83;105060;1256;96574;-73
2023/03/28 04:57:18;;;;;;;47.00;27.30;;;;;;;-3.22;77.79;96795.23;105404;1253;96997;-74
2023/03/28 04:59:46;;;;;;;46.60;27.10;;;;;;;-3.20;77.83;96793.40;105000;1256;102882;-73
2023/03/28 05:02:15;;;;;;;46.90;26.70;;;;;;;-3.15;78.03;96796.12;105119;1256;101786;-77
2023/03/28 05:04:43;;;;;;;48.00;28.40;;;;;;;-3.10;78.10;96794.63;105099;1274;100185;-73
2023/03/28 05:07:12;;;;;;;49.30;27.90;;;;;;;-3.05;78.18;96794.13;104989;1261;97670;-73
2023/03/28 05:09:40;;;;;;;50.60;28.50;;;;;;;-3.01;78.33;96786.21;105280;1254;97007;-73
2023/03/28 05:12:08;;;;;;;42.70;26.30;;;;;;;-2.97;78.41;96786.48;104887;1260;103575;-73
2023/03/28 05:14:36;;;;;;;42.50;25.40;;;;;;;-2.93;78.44;96789.64;105025;1267;101830;-78
2023/03/28 05:17:04;;;;;;;48.40;28.30;;;;;;;-2.88;78.48;96786.23;104845;1275;100417;-73
2023/03/28 05:19:32;;;;;;;51.40;28.50;;;;;;;-2.83;78.55;96785.38;104676;1263;97414;-73
2023/03/28 05:22:00;;;;;;;50.00;29.10;;;;;;;-2.78;78.74;96787.19;105171;1257;97222;-73
2023/03/28 05:24:29;;;;;;;51.50;28.90;;;;;;;-2.71;78.79;96787.95;105225;1257;102840;-79
2023/03/28 05:26:57;;;;;;;47.20;28.30;;;;;;;-2.64;78.92;96782.53;105261;1256;101940;-73
2023/03/28 05:29:25;;;;;;;49.20;27.20;;;;;;;-2.59;78.91;96779.92;105060;1257;100482;-76
2023/03/28 05:31:53;;;;;;;51.50;28.50;;;;;;;-2.53;79.07;96780.05;105273;1256;97484;-73
2023/03/28 05:34:23;;;;;;;48.90;27.10;;;;;;;-2.47;79.15;96777.73;105270;1257;97757;-73
2023/03/28 05:36:51;;;;;;;49.70;27.40;;;;;;;-2.42;79.22;96778.85;105304;1269;102733;-75
2023/03/28 05:39:19;;;;;;;52.50;30.40;;;;;;;-2.37;79.31;96775.87;105216;1253;109813;-73
2023/03/28 05:41:47;;;;;;;45.80;27.00;;;;;;;-2.28;79.35;96776.23;104982;1256;100604;-73
2023/03/28 05:44:15;;;;;;;53.30;30.00;;;;;;;-2.16;79.50;96774.23;105098;1255;97474;-74
2023/03/28 05:46:43;;;;;;;42.50;24.90;;;;;;;-2.05;79.66;96776.27;104804;1263;97095;-73
2023/03/28 05:49:12;;;;;;;38.40;23.70;;;;;;;-1.95;79.62;96778.28;105140;1258;102734;-73
2023/03/28 05:51:40;;;;;;;37.10;23.20;;;;;;;-1.88;79.59;96773.69;105067;1259;100437;-73
2023/03/28 05:54:08;;;;;;;32.10;21.50;;;;;;;-1.81;79.63;96767.96;104976;1257;100358;-75
2023/03/28 05:56:36;;;;;;;33.70;20.30;;;;;;;-1.75;79.63;96766.46;104992;1255;97878;-74
2023/03/28 05:59:04;;;;;;;26.40;15.50;;;;;;;-1.70;79.82;96768.14;104950;1267;98368;-74
2023/03/28 06:01:33;;;;;;;23.40;17.80;;;;;;;-1.66;79.84;96767.84;105100;1253;102420;-73
2023/03/28 06:04:02;;;;;;;20.80;14.90;;;;;;;-1.58;79.82;96767.23;105297;1252;101969;-73
2023/03/28 06:06:31;;;;;;;29.90;18.40;;;;;;;-1.48;79.82;96770.64;105291;1256;100439;-72
2023/03/28 06:09:00;;;;;;;30.10;17.90;;;;;;;-1.38;79.74;96770.35;105022;1260;97798;-73
2023/03/28 06:11:29;;;;;;;36.70;23.10;;;;;;;-1.27;79.78;96772.46;105334;1272;97154;-77
2023/03/28 06:13:57;;;;;;;32.20;20.20;;;;;;;-1.18;79.78;96770.11;105166;1257;102666;-74
2023/03/28 06:16:25;;;;;;;25.90;16.70;;;;;;;-1.09;79.74;96772.42;105005;1252;101845;-72
2023/03/28 06:18:53;;;;;;;24.50;17.00;;;;;;;-1.03;79.61;96773.27;105049;1267;100565;-74
2023/03/28 06:21:22;;;;;;;21.50;14.50;;;;;;;-0.96;79.53;96776.95;104843;1260;96793;-72
2023/03/28 06:23:50;;;;;;;16.60;11.90;;;;;;;-0.89;79.40;96777.73;105224;1266;97093;-73
2023/03/28 06:26:19;;;;;;;16.10;10.90;;;;;;;-0.81;79.27;96778.38;105307;1255;102728;-74
2023/03/28 06:28:47;;;;;;;16.30;11.40;;;;;;;-0.75;79.05;96781.30;105242;1252;101814;-72
2023/03/28 06:31:16;;;;;;;20.30;14.40;;;;;;;-0.68;78.85;96788.49;104829;1261;99266;-76
2023/03/28 06:33:44;;;;;;;17.40;11.90;;;;;;;-0.62;78.60;96794.58;104964;1267;97509;-74
2023/03/28 06:36:12;;;;;;;13.30;9.70;;;;;;;-0.58;78.33;96804.05;105049;1267;97179;-72
2023/03/28 06:38:40;;;;;;;13.20;8.00;;;;;;;-0.56;78.09;96799.47;104910;1260;102041;-72
2023/03/28 06:41:09;;;;;;;10.20;7.70;;;;;;;-0.55;77.90;96800.54;104879;1253;100280;-72
2023/03/28 06:43:37;;;;;;;10.40;7.70;;;;;;;-0.54;77.55;96805.39;105133;1258;100531;-73
2023/03/28 06:46:05;;;;;;;13.60;8.50;;;;;;;-0.50;77.56;96809.13;104940;1268;97858;-72
2023/03/28 06:48:34;;;;;;;14.10;8.90;;;;;;;-0.46;77.41;96812.41;105005;1257;96998;-72
2023/03/28 06:51:03;;;;;;;18.60;9.90;;;;;;;-0.43;77.36;96812.60;104973;1268;102642;-72
2023/03/28 06:53:31;;;;;;;14.60;8.80;;;;;;;-0.42;77.22;96816.21;105053;1255;102055;-72
2023/03/28 06:55:59;;;;;;;17.10;9.90;;;;;;;-0.46;77.02;96815.53;104681;1269;100514;-74
2023/03/28 06:58:28;;;;;;;20.80;11.20;;;;;;;-0.43;77.12;96820.23;104884;1258;96653;-72
2023/03/28 07:00:59;;;;;;;9.70;7.60;;;;;;;-0.42;77.04;96819.86;105112;1257;96984;-73
2023/03/28 07:03:28;;;;;;;11.60;7.60;;;;;;;-0.41;76.84;96829.23;105003;1256;102989;-72
2023/03/28 07:06:07;;;;;;;10.70;8.40;;;;;;;-0.40;76.69;96834.52;105141;1256;101919;-74
2023/03/28 07:08:37;;;;;;;15.10;8.20;;;;;;;-0.35;76.63;96835.84;104878;1260;100304;-72
2023/03/28 07:11:05;;;;;;;9.80;8.60;;;;;;;-0.32;76.50;96836.81;105090;1255;96594;-72
2023/03/28 07:13:34;;;;;;;15.30;9.40;;;;;;;-0.25;76.51;96835.40;104635;1253;97107;-72
2023/03/28 07:16:08;;;;;;;14.70;9.70;;;;;;;-0.16;76.49;96836.48;105061;1257;102323;-72
2023/03/28 07:18:36;;;;;;;12.90;9.80;;;;;;;-0.06;76.45;96838.31;104979;1254;101952;-72
2023/03/28 07:21:09;;;;;;;18.30;9.10;;;;;;;0.01;76.41;96841.48;105130;1267;100095;-71
2023/03/28 07:23:38;;;;;;;16.70;8.70;;;;;;;-0.02;76.46;96847.77;105087;1256;96648;-72
2023/03/28 07:26:11;;;;;;;16.20;10.50;;;;;;;-0.07;76.49;96847.95;105296;1255;96973;-71
2023/03/28 07:28:39;;;;;;;14.60;11.30;;;;;;;-0.10;76.62;96852.54;105305;1258;103460;-71
2023/03/28 07:31:07;;;;;;;12.70;11.00;;;;;;;-0.10;76.63;96850.75;105121;1257;100063;-70
2023/03/28 07:33:37;;;;;;;18.10;15.00;;;;;;;-0.06;76.67;96850.85;105180;1257;100270;-74
2023/03/28 07:36:12;;;;;;;18.30;12.20;;;;;;;0.03;76.69;96851.55;105196;1254;96594;-72
2023/03/28 07:38:40;;;;;;;15.50;11.20;;;;;;;0.09;76.76;96854.23;105082;1253;98247;-73
2023/03/28 07:41:09;;;;;;;14.40;10.20;;;;;;;0.12;76.64;96857.91;105265;1256;102575;-71
2023/03/28 07:43:38;;;;;;;15.10;9.90;;;;;;;0.12;76.67;96859.77;105239;1267;101844;-71
2023/03/28 07:46:13;;;;;;;12.70;8.90;;;;;;;0.11;76.64;96859.56;104916;1263;97975;-73
2023/03/28 07:48:42;;;;;;;13.50;9.20;;;;;;;0.09;76.78;96860.95;105224;1256;96653;-71
2023/03/28 07:51:31;;;;;;;17.30;10.80;;;;;;;0.12;76.81;96865.03;104907;1261;98210;-71
2023/03/28 07:54:00;;;;;;;11.60;8.20;;;;;;;0.11;76.83;96873.23;104743;1257;102573;-73
2023/03/28 07:56:28;;;;;;;11.20;7.60;;;;;;;0.10;76.83;96881.73;104746;1257;101383;-71
2023/03/28 07:58:57;;;;;;;12.00;7.40;;;;;;;0.01;76.75;96888.33;104874;1274;99439;-72
2023/03/28 08:01:25;;;;;;;10.70;8.00;;;;;;;-0.15;76.79;96888.88;104831;1259;97833;-72
2023/03/28 08:03:53;;;;;;;13.00;9.50;;;;;;;-0.32;76.93;96889.60;104832;1256;98168;-72
2023/03/28 08:06:24;;;;;;;13.80;10.10;;;;;;;-0.40;77.13;96892.73;104732;1270;103000;-73
2023/03/28 08:08:52;;;;;;;11.30;8.30;;;;;;;-0.47;77.32;96897.89;104573;1263;101706;-72
2023/03/28 08:11:21;;;;;;;10.20;7.50;;;;;;;-0.60;77.64;96896.58;104741;1259;100522;-73
2023/03/28 08:13:49;;;;;;;10.10;6.80;;;;;;;-0.73;77.69;96914.13;104759;1262;96869;-72
2023/03/28 08:16:18;;;;;;;8.50;4.60;;;;;;;-0.91;77.74;96930.59;104731;1259;98037;-71
2023/03/28 08:18:46;;;;;;;4.80;3.30;;;;;;;-1.14;77.79;96952.99;104753;1259;102803;-71
2023/03/28 08:21:14;;;;;;;5.20;3.80;;;;;;;-1.31;77.66;96968.81;104840;1270;101878;-72
2023/03/28 08:23:43;;;;;;;5.80;5.10;;;;;;;-1.49;77.78;96968.45;104719;1260;100417;-72
2023/03/28 08:26:12;;;;;;;6.20;5.20;;;;;;;-1.65;77.71;96962.39;104872;1260;96588;-72
2023/03/28 08:28:41;;;;;;;7.70;5.90;;;;;;;-1.74;77.79;96955.17;105166;1256;97312;-72
2023/03/28 08:31:15;;;;;;;6.40;4.20;;;;;;;-1.75;77.99;96954.22;105183;1267;102525;-74
2023/03/28 08:33:47;;;;;;;6.50;4.10;;;;;;;-1.71;78.20;96950.31;105245;1257;102443;-72
2023/03/28 08:36:15;;;;;;;5.30;3.60;;;;;;;-1.63;78.27;96946.85;105125;1257;100151;-73
2023/03/28 08:38:45;;;;;;;4.90;3.10;;;;;;;-1.56;78.04;96946.15;105039;1253;96677;-70
2023/03/28 08:41:40;;;;;;;6.20;3.40;;;;;;;-1.53;78.01;96948.70;105248;1254;96783;-72
2023/03/28 08:44:30;;;;;;;4.50;3.80;;;;;;;-1.40;78.19;96952.48;105211;1254;103161;-71
2023/03/28 08:47:25;;;;;;;6.80;3.70;;;;;;;-1.28;78.11;96953.84;105262;1257;101968;-71
2023/03/28 08:49:59;;;;;;;6.00;4.00;;;;;;;-1.20;77.78;96959.57;105107;1270;100450;-71
2023/03/28 08:52:29;;;;;;;8.60;6.10;;;;;;;-1.15;77.54;96956.12;105158;1267;96564;-73
2023/03/28 08:55:28;;;;;;;12.50;7.20;;;;;;;-1.06;77.45;96955.08;105167;1254;97095;-71
2023/03/28 08:57:57;;;;;;;12.50;7.30;;;;;;;-0.94;77.35;96956.46;105101;1256;102770;-73
2023/03/28 09:00:35;;;;;;;12.30;8.00;;;;;;;-0.86;77.20;96958.50;105239;1256;102012;-71
2023/03/28 09:03:12;;;;;;;16.90;10.80;;;;;;;-0.77;77.13;96962.16;105096;1256;100885;-72
2023/03/28 09:05:52;;;;;;;22.00;13.00;;;;;;;-0.65;77.07;96963.70;104814;1259;97932;-71
2023/03/28 09:09:12;;;;;;;44.00;21.70;;;;;;;-0.57;76.90;96970.67;105255;1256;97074;-71
2023/03/28 09:11:43;;;;;;;23.30;14.10;;;;;;;-0.50;76.82;96972.60;104828;1260;101532;-72
2023/03/28 09:14:32;;;;;;;15.50;10.30;;;;;;;-0.43;76.83;96977.86;104432;1266;100497;-71
2023/03/28 09:17:05;;;;;;;11.40;8.20;;;;;;;-0.36;76.82;96980.55;104627;1265;99183;-71
2023/03/28 09:19:54;;;;;;;14.50;8.90;;;;;;;-0.43;76.67;96987.21;104684;1259;97694;-72
2023/03/28 09:22:31;;;;;;;11.80;7.90;;;;;;;-0.47;76.72;96987.11;104674;1265;97160;-72
2023/03/28 09:25:08;;;;;;;11.20;8.50;;;;;;;-0.46;76.86;96992.27;104635;1265;102882;-71
2023/03/28 09:27:59;;;;;;;10.40;7.20;;;;;;;-0.38;76.97;96998.05;104526;1262;101885;-71
2023/03/28 09:30:32;;;;;;;18.90;9.20;;;;;;;-0.32;76.90;97000.48;104762;1264;98753;-71
2023/03/28 09:33:11;;;;;;;31.40;14.40;;;;;;;-0.36;76.72;97004.91;104946;1274;97901;-71
2023/03/28 09:35:39;;;;;;;18.60;9.80;;;;;;;-0.37;76.81;97003.29;104625;1264;97241;-72
2023/03/28 09:38:20;;;;;;;14.10;8.90;;;;;;;-0.41;76.62;97004.02;104441;1259;102456;-71
2023/03/28 09:40:53;;;;;;;18.30;10.60;;;;;;;-0.43;76.77;97007.90;104536;1267;101860;-72
2023/03/28 09:43:47;;;;;;;12.60;7.40;;;;;;;-0.38;76.80;97009.56;104436;1260;100520;-69
2023/03/28 09:46:30;;;;;;;16.60;8.80;;;;;;;-0.29;76.87;97009.54;104607;1275;96688;-70
2023/03/28 09:48:59;;;;;;;11.10;7.70;;;;;;;-0.21;77.04;97002.20;105075;1256;97074;-69
2023/03/28 09:51:27;;;;;;;10.40;7.20;;;;;;;-0.22;77.00;97007.10;104926;1258;101689;-71
2023/03/28 09:53:55;;;;;;;9.30;6.50;;;;;;;-0.18;77.15;97005.58;104883;1267;101998;-71
2023/03/28 09:56:38;;;;;;;10.80;6.80;;;;;;;-0.05;77.54;97009.06;104872;1258;100408;-69
2023/03/28 09:59:21;;;;;;;9.10;6.30;;;;;;;0.06;77.52;97015.70;104869;1270;97773;-70
2023/03/28 10:01:54;;;;;;;9.10;5.90;;;;;;;0.05;77.22;97013.86;105209;1259;97088;-69
2023/03/28 10:04:28;;;;;;;9.40;5.60;;;;;;;0.04;77.28;97019.31;105293;1258;102452;-68
2023/03/28 10:07:36;;;;;;;15.20;9.00;;;;;;;-0.00;77.14;97034.20;105246;1254;101826;-69
2023/03/28 10:10:28;;;;;;;10.50;7.40;;;;;;;-0.11;77.03;97050.66;104523;1264;100506;-70
2023/03/28 10:13:01;;;;;;;9.30;5.80;;;;;;;-0.25;76.97;97074.92;104680;1263;96664;-68
2023/03/28 10:15:42;;;;;;;8.20;4.90;;;;;;;-0.35;77.03;97077.84;104213;1259;97242;-69
2023/03/28 10:18:20;;;;;;;4.60;3.50;;;;;;;-0.44;77.09;97089.69;104503;1273;103024;-70
2023/03/28 10:20:50;;;;;;;5.10;2.70;;;;;;;-0.60;76.77;97097.97;104521;1259;102085;-70
2023/03/28 10:23:22;;;;;;;3.40;2.30;;;;;;;-0.83;76.70;97084.20;104702;1273;100693;-69
2023/03/28 10:25:53;;;;;;;5.70;2.90;;;;;;;-0.92;76.78;97080.67;104637;1265;97265;-71
2023/03/28 10:28:36;;;;;;;4.50;3.00;;;;;;;-0.94;76.86;97076.45;104529;1260;97111;-71
2023/03/28 10:31:06;;;;;;;6.20;2.60;;;;;;;-0.95;76.72;97081.83;104608;1265;102610;-72
2023/03/28 10:33:37;;;;;;;6.40;3.60;;;;;;;-0.93;76.61;97082.91;104471;1274;110357;-71
2023/03/28 10:36:09;;;;;;;5.00;3.40;;;;;;;-0.92;76.59;97086.45;104365;1267;99606;-70
2023/03/28 10:38:44;;;;;;;4.70;3.00;;;;;;;-0.90;76.37;97088.04;104573;1263;97744;-70
2023/03/28 10:41:20;;;;;;;4.90;3.10;;;;;;;-0.81;76.15;97084.55;104718;1262;99545;-69
2023/03/28 10:43:48;;;;;;;6.00;3.90;;;;;;;-0.65;76.20;97093.77;104547;1259;103086;-72
2023/03/28 10:46:49;;;;;;;5.00;4.40;;;;;;;-0.48;76.12;97099.05;104509;1262;100843;-70
2023/03/28 10:49:19;;;;;;;7.50;5.20;;;;;;;-0.20;76.20;97099.02;104433;1276;100267;-71
2023/03/28 10:51:47;;;;;;;6.80;5.10;;;;;;;0.10;76.32;97094.72;104480;1265;97572;-70
2023/03/28 10:54:36;;;;;;;7.80;5.10;;;;;;;0.38;75.98;97088.22;104237;1268;97234;-70
2023/03/28 10:57:11;;;;;;;10.00;5.20;;;;;;;0.48;75.59;97089.65;104325;1268;102741;-72
2023/03/28 10:59:51;;;;;;;6.70;5.20;;;;;;;0.66;75.59;97099.13;104318;1265;102024;-69
2023/03/28 11:03:07;;;;;;;8.10;5.60;;;;;;;0.68;75.22;97102.66;104374;1265;100454;-70
2023/03/28 11:05:59;;;;;;;10.40;6.30;;;;;;;0.89;75.56;97107.52;104295;1265;97027;-70
2023/03/28 11:08:27;;;;;;;12.10;7.00;;;;;;;1.30;76.02;97101.64;104335;1265;98120;-71
2023/03/28 11:11:14;;;;;;;12.00;8.10;;;;;;;1.79;76.02;97099.27;104561;1262;102480;-71
2023/03/28 11:14:14;;;;;;;8.00;6.10;;;;;;;2.43;75.73;97096.20;104122;1261;110294;-70
2023/03/28 11:23:47;;;;;;;14.70;8.50;;;;;;;3.34;72.97;97105.59;102183;1294;635887;-72
2023/03/28 11:26:23;;;;;;;6.00;3.40;;;;;;;3.13;72.39;97114.70;104277;1270;95851;-72
2023/03/28 11:29:03;;;;;;;5.60;3.90;;;;;;;2.79;71.90;97131.13;104190;1277;95846;-72
2023/03/28 11:31:50;;;;;;;5.80;3.90;;;;;;;2.54;71.87;97130.61;104244;1268;100020;-73
2023/03/28 11:34:27;;;;;;;4.70;3.40;;;;;;;2.24;71.76;97124.70;104432;1269;101815;-72
2023/03/28 11:37:21;;;;;;;3.60;2.70;;;;;;;2.06;71.82;97126.77;104252;1285;236696;-73
2023/03/28 11:40:09;;;;;;;4.20;2.80;;;;;;;2.25;72.33;97125.86;104080;1271;97192;-73
2023/03/28 11:42:48;;;;;;;7.20;3.10;;;;;;;2.61;72.31;97120.26;104456;1269;96920;-73
2023/03/28 11:45:31;;;;;;;5.30;2.80;;;;;;;3.12;72.35;97116.83;104636;1269;100145;-72
2023/03/28 11:48:09;;;;;;;5.40;3.10;;;;;;;3.62;71.60;97115.46;104470;1267;102071;-71